Weather observations for the past three days for
Nebraska City, Nebraska City Municipal Airport
Imperial (Metric)
Date Time (cdt) Wind (mph) Vis. (mi.) Weather Sky Cond. Temperature (ºF) Relative Humidity Wind Chill (°F) Heat Index (°F) Pressure Precipitation (in)
Air Dwpt 6 hour altimeter (in) sea level (mb) 1 hr 3 hr 6 hr
Max. Min.
08 08:55 SE 5 10.00 Overcast OVC100 56.1 43.2 62% 29.83 0.0
08 08:35 E 5 10.00 Mostly Cloudy BKN100 56.3 42.1 59% 29.82 0.0
08 08:15 NE 3 10.00 Partly Cloudy SCT110 55.4 43 63% 29.83 0.0
08 07:55 E 3 10.00 Partly Cloudy SCT110 54.5 41.5 62% 29.81 0.0
08 07:35 SE 3 10.00 Mostly Cloudy BKN110 52.7 41.5 66% 29.81 0.0
08 07:15 NE 3 10.00 Overcast OVC100 51.8 41.4 68% 29.82 0.0
08 06:55 N 6 10.00 Overcast SCT070 OVC100 51.3 41.7 57.9 51.3 70% 29.82 0.0
08 06:35 NE 7 10.00 Rain SCT070 OVC100 52.5 40.3 63% 29.81 0.0
08 06:15 NE 6 10.00 Overcast OVC100 52.7 39.6 61% 29.79 0.0
08 05:55 NE 6 10.00 Mostly Cloudy BKN110 52 40.8 66% 29.79 0.0
08 05:35 NE 5 10.00 Mostly Cloudy BKN110 53.2 38.8 58% 29.78 0.0
08 05:15 Calm 10.00 Overcast OVC110 52.9 39.9 62% 29.79 0.0
08 04:55 NE 3 10.00 Overcast SCT070 BKN090 OVC110 52.3 40.3 64% 29.79 0.0
08 04:35 E 6 10.00 Overcast OVC100 53.8 39 58% 29.79 0.0
08 04:15 Calm 10.00 Overcast OVC100 54.1 38.3 55% 29.81 0.0
08 03:55 Calm 10.00 Overcast OVC110 53.6 39.2 58% 29.81 0.0
08 03:35 N 5 10.00 Overcast OVC110 53.8 38.5 56% 29.81 0.0
08 03:15 Calm 10.00 Mostly Cloudy BKN110 55.2 35.1 47% 29.82 0.0
08 02:55 Calm 10.00 Mostly Cloudy BKN120 55 35.8 48% 29.81 0.0
08 02:35 Calm 10.00 Partly Cloudy SCT120 54.9 35.2 48% 29.82 0.0
08 02:15 SE 5 10.00 Fair CLR 56.7 34.2 43% 29.82 0.0
08 01:55 SE 5 10.00 Fair CLR 55.8 34.5 45% 29.82 0.0
08 01:35 S 5 10.00 Fair CLR 56.8 34.7 43% 29.83 0.0
08 01:15 SE 6 10.00 Fair CLR 53.8 37.8 55% 29.84 0.0
08 00:55 E 5 10.00 Partly Cloudy SCT120 57.2 34.2 70.9 55.2 42% 29.84 0.0
08 00:35 NE 5 10.00 Mostly Cloudy BKN120 56.3 34.9 45% 29.83 0.0
08 00:15 NE 3 10.00 Overcast OVC120 55.9 34.9 45% 29.83 0.0
07 23:55 NE 5 10.00 Mostly Cloudy BKN120 56.3 34 43% 29.83 0.0
07 23:35 NE 6 10.00 Fair CLR 57 32.4 39% 29.83 0.0
07 23:15 E 5 10.00 Partly Cloudy SCT120 57.2 31.8 38% 29.83 0.0
07 22:55 E 3 10.00 Partly Cloudy SCT120 57.7 31.8 38% 29.84 0.0
07 22:35 E 5 10.00 Fair CLR 57.6 32 38% 29.84 0.0
07 22:15 Calm 10.00 Fair CLR 60.8 30.9 32% 29.83 0.0
07 21:55 Calm 10.00 Fair CLR 63 30.9 30% 29.83 0.0
07 21:35 N 5 10.00 Fair CLR 60.8 32 34% 29.82 0.0
07 21:15 N 5 10.00 Partly Cloudy SCT120 64.4 31.5 29% 29.81 0.0
07 20:55 N 7 10.00 Partly Cloudy SCT120 62.1 32.7 33% 29.81 0.0
07 20:35 N 5 10.00 Fair CLR 64.6 32 30% 29.8 0.0
07 20:15 N 5 10.00 Fair CLR 65.1 32 29% 29.79 0.0
07 19:55 N 7 10.00 Fair CLR 66.7 32.4 28% 29.79 0.0
07 19:35 N 6 10.00 Fair CLR 68.5 32.7 27% 29.78 0.0
07 19:15 NW 10 10.00 Fair CLR 69.4 33.1 26% 29.78 0.0
07 18:55 N 9 10.00 Fair CLR 70.9 32.7 74.7 67.5 24% 29.78 0.0
07 18:35 NW 12 G 18 10.00 Fair CLR 71.6 33.4 25% 29.78 0.0
07 18:15 NW 14 G 20 10.00 Fair CLR 72.1 33.4 24% 29.78 0.0
07 17:55 NW 15 G 20 10.00 Fair CLR 72.9 34.5 25% 29.77 0.0
07 17:35 NW 15 G 21 10.00 Fair CLR 73 33.3 23% 29.78 0.0
07 17:15 NW 8 G 24 10.00 Fair CLR 73.4 34 24% 29.78 0.0
07 16:55 NW 15 G 22 10.00 Fair CLR 73.9 33.8 23% 29.78 0.0
07 16:35 NW 16 G 28 10.00 Fair CLR 73.8 33.8 23% 29.77 0.0
07 16:15 W 10 G 26 10.00 Fair CLR 73.9 33.3 23% 29.78 0.0
07 15:55 W 21 G 28 10.00 Partly Cloudy and Breezy SCT100 74.3 34.7 24% 29.78 0.0
07 15:35 W 15 G 24 10.00 Partly Cloudy SCT100 73.6 37.6 27% 29.79 0.0
07 15:15 SW 20 G 32 10.00 Partly Cloudy SCT100 73.2 38.1 28% 29.8 0.0
07 14:55 W 17 G 25 10.00 Partly Cloudy SCT090 SCT110 71.6 38.7 30% 29.81 0.0
07 14:35 W 15 G 30 10.00 Partly Cloudy SCT090 72 38.7 30% 29.81 0.0
07 14:15 SW 16 G 26 10.00 Fair CLR 71.1 39.2 31% 29.82 0.0
07 13:55 W 17 G 25 10.00 Fair CLR 70.2 39.4 33% 29.83 0.0
07 13:35 SW 20 G 32 10.00 Fair CLR 69.3 38.3 32% 29.84 0.0
07 13:15 SW 18 G 28 10.00 Fair CLR 68.4 38.8 34% 29.84 0.0
07 12:55 SW 18 G 26 10.00 Fair CLR 67.3 38.7 67.6 44.6 35% 29.85 0.0
07 12:35 SW 14 G 23 10.00 Fair CLR 66.7 38.7 36% 29.85 0.0
07 12:15 SW 14 G 24 10.00 Fair CLR 66.4 38.3 36% 29.87 0.0
07 11:55 SW 14 G 22 10.00 Fair CLR 65.1 38.7 38% 29.88 0.0
07 11:35 SW 15 G 25 10.00 Fair CLR 63.7 38.5 40% 29.88 0.0
07 11:15 SW 15 G 26 10.00 Fair CLR 63 40.3 43% 29.89 0.0
07 10:55 W 18 G 22 10.00 Fair CLR 61.9 40.5 46% 29.9 0.0
07 10:35 W 18 10.00 Fair CLR 60.6 41.5 50% 29.9 0.0
07 10:15 W 13 G 21 10.00 Fair CLR 58.8 41.7 53% 29.91 0.0
07 09:55 W 13 G 20 10.00 Fair CLR 57.6 42.6 58% 29.92 0.0
07 09:35 W 17 10.00 Fair CLR 55.8 41.5 59% 29.92 0.0
07 09:15 W 16 G 21 10.00 Fair CLR 54.5 41.9 63% 29.93 0.0
07 08:55 W 15 G 23 10.00 Fair CLR 52.9 41.9 66% 29.93 0.0
07 08:15 W 15 10.00 Fair CLR 50 41.7 73% 45 29.94 0.0
07 07:55 W 16 10.00 Fair CLR 48 41.4 78% 42 29.94 0.0
07 07:35 SW 15 10.00 Fair CLR 46.6 41 81% 41 29.94 0.0
07 07:15 W 14 10.00 Fair CLR 45.5 41 84% 40 29.94 0.0
07 06:55 W 14 10.00 Fair CLR 44.6 40.3 48.9 43.7 85% 39 29.94 0.0
07 06:35 SW 13 10.00 Fair CLR 43.9 40.1 87% 38 29.94 0.0
07 06:15 SW 13 10.00 Fair CLR 43.9 39.7 85% 38 29.94 0.0
07 05:55 SW 13 10.00 Fair CLR 43.9 39.6 85% 38 29.93 0.0
07 05:35 SW 12 10.00 Fair CLR 43.9 39.4 84% 38 29.94 0.0
07 05:15 SW 9 10.00 Fair CLR 44.4 39.4 83% 40 29.94 0.0
07 04:55 SW 10 10.00 Fair CLR 44.2 39.2 83% 39 29.94 0.0
07 04:35 SW 12 10.00 Fair CLR 43.9 39 83% 38 29.95 0.0
07 04:15 SW 12 10.00 Fair CLR 44.4 38.7 80% 39 29.95 0.0
07 03:55 SW 10 10.00 Fair CLR 44.2 38.5 80% 39 29.96 0.0
07 03:35 SW 10 10.00 Fair CLR 44.2 38.3 80% 39 29.96 0.0
07 03:15 SW 10 10.00 Fair CLR 44.6 37.9 78% 40 29.97 0.0
07 02:55 W 10 10.00 Fair CLR 44.6 37.4 76% 40 29.97 0.0
07 02:35 W 10 10.00 Fair CLR 44.4 36.5 74% 40 29.98 0.0
07 02:15 SW 10 10.00 Fair CLR 45 36.1 71% 40 29.99 0.0
07 01:55 SW 12 10.00 Fair CLR 46 35.8 68% 41 29.99 0.0
07 01:35 W 12 10.00 Partly Cloudy SCT090 47.3 35.2 63% 43 29.99 0.0
07 01:15 SW 10 10.00 Mostly Cloudy BKN090 48.4 34.5 59% 44 30 0.0
07 00:55 SW 8 10.00 Overcast OVC090 48.2 33.4 58.6 45.5 57% 45 30 0.0
07 00:35 SW 8 10.00 Mostly Cloudy BKN090 47.8 31.5 53% 45 30.01 0.0
07 00:15 SW 9 10.00 Partly Cloudy SCT100 47.5 30.2 51% 44 30.01 0.0
06 23:35 SW 7 10.00 Partly Cloudy SCT100 47.3 29.8 51% 44 30.01 0.0
06 23:15 SW 8 10.00 Fair CLR 47.5 29.8 51% 44 30.01 0.0
06 22:55 SW 7 10.00 Fair CLR 47.3 29.1 49% 44 30.02 0.0
06 22:35 SW 7 10.00 Fair CLR 48.7 27.3 43% 46 30.02 0.0
06 22:15 SW 5 10.00 Fair CLR 48.9 27.1 43% 48 30.02 0.0
06 21:55 SW 6 10.00 Fair CLR 50.7 26.6 39% 30.02 0.0
06 21:35 SW 5 10.00 Fair CLR 51.1 27 39% 30.01 0.0
06 20:55 W 5 10.00 Fair CLR 53.1 27 37% 30.01 0.0
06 20:35 W 5 10.00 Fair CLR 52.7 28.9 40% 30.01 0.0
06 20:15 W 5 10.00 Partly Cloudy SCT090 54.5 28.8 37% 30.01 0.0
06 19:55 W 6 10.00 Partly Cloudy SCT090 55.8 28.2 35% 30.01 0.0
06 19:35 W 8 10.00 Partly Cloudy SCT095 56.7 28 33% 30.01 0.0
06 19:15 W 8 10.00 Partly Cloudy SCT095 58.1 27.7 31% 30.01 0.0
06 18:55 NW 8 10.00 Fair CLR 58.1 27.1 61.5 54.7 31% 30.01 0.0
06 18:35 NW 15 G 21 10.00 Fair CLR 59.5 28 30% 30.02 0.0
06 18:15 NW 6 10.00 Partly Cloudy SCT095 56.3 27.7 33% 30.02 0.0
06 17:55 NW 8 10.00 Partly Cloudy SCT095 58.1 27.5 31% 30.03 0.0
06 17:35 NW 12 G 16 10.00 Partly Cloudy SCT090 60.1 27.5 29% 30.03 0.0
06 17:15 N 7 10.00 Mostly Cloudy BKN090 61 28.9 30% 30.03 0.0
06 16:55 NW 15 10.00 Overcast OVC090 60.8 28.6 29% 30.03 0.0
06 16:35 NW 6 10.00 Overcast OVC090 59.4 27 29% 30.04 0.0
06 16:15 NW 9 10.00 Mostly Cloudy BKN090 58.5 28.6 32% 30.04 0.0
06 15:55 NW 8 10.00 Partly Cloudy SCT090 57.2 26.6 31% 30.06 0.0
06 15:35 W 12 10.00 Partly Cloudy SCT090 57.9 28.8 33% 30.07 0.0
06 15:15 W 5 10.00 Partly Cloudy SCT090 58.1 28.6 32% 30.07 0.0
06 14:55 N 10 G 22 10.00 Mostly Cloudy BKN080 56.5 26.4 32% 30.08 0.0
06 14:35 NW 12 10.00 Mostly Cloudy BKN080 56.7 27.1 32% 30.08 0.0
06 14:15 NW 5 G 21 10.00 Mostly Cloudy BKN080 56.5 27.7 33% 30.08 0.0
06 13:55 NW 10 10.00 Partly Cloudy SCT080 56.3 26.4 32% 30.08 0.0
06 13:35 NW 14 G 21 10.00 Fair CLR 57.2 27.9 33% 30.09 0.0
06 13:15 NW 9 10.00 Fair CLR 55.8 27 33% 30.09 0.0
06 12:55 W 6 G 16 10.00 Partly Cloudy SCT085 55.8 26.8 56.3 41.2 33% 30.11 0.0
06 12:35 NW 10 10.00 Partly Cloudy SCT085 55.6 27.7 34% 30.11 0.0
06 12:15 W 6 10.00 Partly Cloudy SCT085 55 28 36% 30.11 0.0
06 11:55 NW 9 10.00 Partly Cloudy SCT070 54.5 26.1 33% 30.12 0.0
06 11:35 NW 7 10.00 Fair CLR 53.6 27.5 37% 30.12 0.0
06 11:15 N 12 10.00 Fair CLR 53.4 27.5 37% 30.12 0.0
06 10:55 N 14 G 18 10.00 Fair CLR 52.3 26.4 37% 30.11 0.0
06 10:35 N 10 10.00 Fair CLR 51.6 26.2 37% 30.11 0.0
06 10:15 N 3 10.00 Fair CLR 50.9 29.1 43% 30.11 0.0
06 09:55 Calm 10.00 Fair CLR 50 27.9 42% 30.12 0.0
06 09:35 N 3 10.00 Fair CLR 48.9 28 44% 30.12 0.0
06 09:15 N 6 10.00 Fair CLR 48.7 28.2 45% 47 30.11 0.0
06 08:55 N 6 10.00 Fair CLR 48.2 29.5 48% 46 30.11 0.0
06 08:35 N 5 10.00 Fair CLR 46.9 29.3 50% 45 30.11 0.0
06 08:15 N 6 10.00 Fair CLR 45.7 29.3 53% 43 30.09 0.0
06 07:55 N 7 10.00 Fair CLR 45 30.9 58% 42 30.09 0.0
06 07:35 N 6 10.00 Fair CLR 42.1 29.5 61% 39 30.07 0.0
06 07:15 N 6 10.00 Fair CLR 41.5 28.9 61% 38 30.07 0.0
06 06:55 N 8 10.00 Fair CLR 41 28.2 47.3 39.2 60% 36 30.06 0.0
06 06:35 N 7 10.00 Fair CLR 39.2 28.4 65% 35 30.04 0.0
06 06:15 N 6 10.00 Fair CLR 40.1 28 62% 37 30.04 0.0
06 05:35 NW 5 10.00 Fair CLR 41.9 29.3 61% 40 30.04 0.0
06 05:15 N 5 10.00 Fair CLR 42.6 29.3 59% 40 30.04 0.0
06 04:55 N 5 10.00 Fair CLR 43.2 29.7 59% 41 30.03 0.0
06 04:35 N 5 10.00 Fair CLR 43.7 29.5 57% 42 30.02 0.0
06 04:15 N 6 10.00 Fair CLR 43.9 29.3 57% 41 30.02 0.0
06 03:55 N 5 10.00 Fair CLR 44.2 30 57% 42 30.02 0.0
06 03:35 N 5 10.00 Fair CLR 44.8 29.8 56% 43 30.01 0.0
06 03:15 N 5 10.00 Fair CLR 44.8 30.6 58% 43 30.01 0.0
06 02:55 N 6 10.00 Partly Cloudy SCT120 45.5 30 55% 43 30.01 0.0
06 02:35 N 6 10.00 Partly Cloudy SCT120 45.5 31.1 57% 43 30 0.0
06 02:15 N 6 10.00 Mostly Cloudy BKN120 45.5 30.9 57% 43 30 0.0
06 01:55 N 6 10.00 Mostly Cloudy BKN120 46 30 54% 44 30 0.0
06 01:35 N 6 10.00 Overcast OVC120 46.4 30 53% 44 30 0.0
06 01:15 N 5 10.00 Mostly Cloudy BKN120 47.1 29.5 50% 46 30 0.0
06 00:55 N 5 10.00 Partly Cloudy SCT120 47.3 29.8 54.5 46.8 51% 46 29.99 0.0
06 00:35 N 6 10.00 Partly Cloudy SCT120 46.9 29.7 51% 45 29.99 0.0
06 00:10 N 3 10.00 Partly Cloudy SCT120 48.2 28.8 47% 29.99 0.0
05 23:55 N 3 10.00 Mostly Cloudy BKN120 48 29.8 49% 29.99 0.0
05 23:35 N 3 10.00 Mostly Cloudy BKN120 48.4 29.5 48% 29.99 0.0
05 23:15 N 5 10.00 Partly Cloudy SCT120 48.6 28.8 46% 47 29.98 0.0
05 22:55 N 6 10.00 Partly Cloudy SCT120 49.3 28.6 45% 47 29.97 0.0
05 22:35 N 7 10.00 Fair CLR 49.5 28.6 45% 47 29.97 0.0
05 22:15 N 7 10.00 Fair CLR 50 28.9 44% 48 29.96 0.0
05 21:55 N 6 10.00 Fair CLR 49.6 29.3 46% 48 29.96 0.0
05 21:35 N 5 10.00 Fair CLR 50.2 28.9 44% 29.95 0.0
05 21:15 N 8 10.00 Fair CLR 50.7 28 42% 29.94 0.0
05 20:55 N 8 10.00 Partly Cloudy SCT110 51.4 27.5 40% 29.93 0.0
05 20:35 N 9 10.00 Overcast OVC110 52.5 28 39% 29.92 0.0
05 20:15 N 12 G 22 10.00 Overcast OVC100 53.6 27.7 37% 29.92 0.0
05 19:55 N 7 10.00 Overcast OVC100 53.8 28.8 38% 29.9 0.0
05 19:35 N 9 10.00 Overcast OVC100 54.5 28.4 37% 29.9 0.0
05 19:15 N 9 10.00 Overcast OVC100 54.3 30.4 40% 29.89 0.0
05 18:55 N 7 10.00 Overcast OVC100 54.5 29.8 59.4 53.8 39% 29.89 0.0
05 18:35 N 9 10.00 Overcast OVC110 54.9 29.8 38% 29.9 0.0
05 18:15 N 14 10.00 Overcast OVC100 55.6 30.2 38% 29.89 0.0
05 17:55 N 12 10.00 Overcast OVC100 55.9 30 37% 29.89 0.0
05 17:35 N 15 G 20 10.00 Overcast OVC100 56.3 30.9 38% 29.89 0.0
05 17:15 N 12 10.00 Overcast OVC100 56.3 30.7 38% 29.89 0.0
05 16:55 N 10 10.00 Mostly Cloudy SCT070 BKN100 56.5 31.6 39% 29.89 0.0
05 16:35 N 10 G 18 10.00 Partly Cloudy SCT070 SCT120 56.5 31.1 38% 29.89 0.0
05 16:15 N 14 G 21 10.00 Partly Cloudy SCT120 57.2 31.1 37% 29.9 0.0
05 15:55 N 16 G 20 10.00 Partly Cloudy SCT070 SCT120 57.4 31.8 38% 29.9 0.0
05 15:35 N 7 10.00 Partly Cloudy SCT070 58.3 32.5 38% 29.9 0.0
05 15:15 N 14 10.00 Partly Cloudy SCT120 57.6 32.4 39% 29.9 0.0
05 14:55 N 10 G 21 10.00 Mostly Cloudy SCT100 BKN120 56.8 32.2 39% 29.92 0.0
05 14:35 N 12 10.00 Mostly Cloudy BKN100 55.8 32 41% 29.92 0.0
05 14:15 N 12 G 21 10.00 Partly Cloudy SCT090 SCT110 56.1 32 40% 29.92 0.0
05 13:55 N 13 G 18 10.00 Overcast OVC090 54.5 31.1 41% 29.93 0.0
05 13:35 N 9 G 17 10.00 Overcast OVC100 54.5 31.3 41% 29.93 0.0
05 13:15 N 8 10.00 Overcast OVC100 53.8 30.2 41% 29.94 0.0
05 12:55 N 12 G 17 10.00 Mostly Cloudy BKN100 54.5 30.4 56.5 47.5 40% 29.94 0.0
05 12:35 N 12 G 16 10.00 Partly Cloudy SCT090 SCT120 54.5 30.7 40% 29.94 0.0
05 12:15 N 12 10.00 Fair CLR 56.1 32 40% 29.94 0.0
05 11:55 N 9 10.00 Fair CLR 54.7 33.1 44% 29.94 0.0
05 11:35 N 6 10.00 Partly Cloudy SCT080 SCT090 SCT110 54.3 34.3 47% 29.93 0.0
05 11:15 N 6 10.00 Mostly Cloudy BKN110 54 34.9 49% 29.93 0.0
05 10:55 N 7 10.00 Overcast OVC110 53.4 35.8 51% 29.93 0.0
05 10:35 N 7 10.00 Overcast OVC110 52.9 37 55% 29.93 0.0
05 10:15 N 6 10.00 Overcast OVC110 52.2 37.9 59% 29.93 0.0
05 09:55 NW 6 10.00 Mostly Cloudy BKN110 52.2 38.7 60% 29.93 0.0
05 09:35 N 6 10.00 Overcast OVC100 52.2 42.4 70% 29.92 0.0
Date Time (cdt) Wind (mph) Vis. (mi.) Weather Sky Cond. Air Dwpt Max. Min. Relative Humidity Wind Chill (°F) Heat Index (°F) altimeter (in) sea level (mb) 1 hr 3 hr 6 hr
6 hour
Temperature (ºF) Pressure Precipitation (in)